sensor_id;sensor_type;location;lat;lon;timestamp;P1;durP1;ratioP1;P2;durP2;ratioP2
5555;SDS011;2801;50.972;7.856;2023-03-13T00:01:20;10.60;;;2.37;;
5555;SDS011;2801;50.972;7.856;2023-03-13T00:03:54;19.03;;;3.17;;
5555;SDS011;2801;50.972;7.856;2023-03-13T00:06:24;16.27;;;2.83;;
5555;SDS011;2801;50.972;7.856;2023-03-13T00:08:57;13.30;;;3.10;;
5555;SDS011;2801;50.972;7.856;2023-03-13T00:11:27;18.23;;;3.47;;
5555;SDS011;2801;50.972;7.856;2023-03-13T00:13:55;15.67;;;2.80;;
5555;SDS011;2801;50.972;7.856;2023-03-13T00:16:24;19.13;;;3.33;;
5555;SDS011;2801;50.972;7.856;2023-03-13T00:18:53;22.63;;;3.03;;
5555;SDS011;2801;50.972;7.856;2023-03-13T00:21:22;8.97;;;2.53;;
5555;SDS011;2801;50.972;7.856;2023-03-13T00:23:51;18.23;;;3.17;;
5555;SDS011;2801;50.972;7.856;2023-03-13T00:26:20;18.73;;;3.10;;
5555;SDS011;2801;50.972;7.856;2023-03-13T00:28:50;19.70;;;2.70;;
5555;SDS011;2801;50.972;7.856;2023-03-13T00:31:21;24.47;;;3.30;;
5555;SDS011;2801;50.972;7.856;2023-03-13T00:33:56;15.63;;;2.43;;
5555;SDS011;2801;50.972;7.856;2023-03-13T00:36:27;17.20;;;2.83;;
5555;SDS011;2801;50.972;7.856;2023-03-13T00:38:57;19.37;;;2.37;;
5555;SDS011;2801;50.972;7.856;2023-03-13T00:41:29;17.20;;;3.40;;
5555;SDS011;2801;50.972;7.856;2023-03-13T00:43:57;16.70;;;2.37;;
5555;SDS011;2801;50.972;7.856;2023-03-13T00:46:26;18.23;;;2.73;;
5555;SDS011;2801;50.972;7.856;2023-03-13T00:48:55;13.60;;;2.50;;
5555;SDS011;2801;50.972;7.856;2023-03-13T00:51:23;20.13;;;2.50;;
5555;SDS011;2801;50.972;7.856;2023-03-13T00:53:52;13.03;;;2.80;;
5555;SDS011;2801;50.972;7.856;2023-03-13T00:56:21;9.13;;;2.47;;
5555;SDS011;2801;50.972;7.856;2023-03-13T00:58:49;24.13;;;3.50;;
5555;SDS011;2801;50.972;7.856;2023-03-13T01:01:22;12.10;;;3.10;;
5555;SDS011;2801;50.972;7.856;2023-03-13T01:03:56;21.77;;;3.10;;
5555;SDS011;2801;50.972;7.856;2023-03-13T01:06:27;12.77;;;2.53;;
5555;SDS011;2801;50.972;7.856;2023-03-13T01:08:56;17.87;;;2.83;;
5555;SDS011;2801;50.972;7.856;2023-03-13T01:11:25;20.23;;;3.30;;
5555;SDS011;2801;50.972;7.856;2023-03-13T01:13:58;13.73;;;2.43;;
5555;SDS011;2801;50.972;7.856;2023-03-13T01:16:30;20.00;;;2.97;;
5555;SDS011;2801;50.972;7.856;2023-03-13T01:19:03;15.00;;;2.50;;
5555;SDS011;2801;50.972;7.856;2023-03-13T01:21:36;18.47;;;3.27;;
5555;SDS011;2801;50.972;7.856;2023-03-13T01:24:04;26.83;;;3.53;;
5555;SDS011;2801;50.972;7.856;2023-03-13T01:26:31;23.77;;;3.50;;
5555;SDS011;2801;50.972;7.856;2023-03-13T01:28:58;19.50;;;3.53;;
5555;SDS011;2801;50.972;7.856;2023-03-13T01:31:29;16.90;;;2.90;;
5555;SDS011;2801;50.972;7.856;2023-03-13T01:34:00;16.70;;;2.87;;
5555;SDS011;2801;50.972;7.856;2023-03-13T01:36:30;15.53;;;3.17;;
5555;SDS011;2801;50.972;7.856;2023-03-13T01:39:00;15.73;;;2.80;;
5555;SDS011;2801;50.972;7.856;2023-03-13T01:41:27;18.50;;;2.60;;
5555;SDS011;2801;50.972;7.856;2023-03-13T01:43:56;17.73;;;3.20;;
5555;SDS011;2801;50.972;7.856;2023-03-13T01:46:28;10.90;;;2.40;;
5555;SDS011;2801;50.972;7.856;2023-03-13T01:51:41;11.97;;;2.60;;
5555;SDS011;2801;50.972;7.856;2023-03-13T01:54:22;16.37;;;2.33;;
5555;SDS011;2801;50.972;7.856;2023-03-13T01:57:10;15.23;;;2.83;;
5555;SDS011;2801;50.972;7.856;2023-03-13T02:00:06;25.07;;;3.37;;
5555;SDS011;2801;50.972;7.856;2023-03-13T02:02:43;22.13;;;3.40;;
5555;SDS011;2801;50.972;7.856;2023-03-13T02:05:16;14.20;;;2.97;;
5555;SDS011;2801;50.972;7.856;2023-03-13T02:07:49;14.27;;;2.77;;
5555;SDS011;2801;50.972;7.856;2023-03-13T02:10:25;13.77;;;2.73;;
5555;SDS011;2801;50.972;7.856;2023-03-13T02:12:54;13.63;;;2.53;;
5555;SDS011;2801;50.972;7.856;2023-03-13T02:15:24;14.37;;;2.77;;
5555;SDS011;2801;50.972;7.856;2023-03-13T02:17:53;12.17;;;2.67;;
5555;SDS011;2801;50.972;7.856;2023-03-13T02:20:21;14.33;;;2.63;;
5555;SDS011;2801;50.972;7.856;2023-03-13T02:26:15;13.87;;;2.90;;
5555;SDS011;2801;50.972;7.856;2023-03-13T02:28:42;21.30;;;3.30;;
5555;SDS011;2801;50.972;7.856;2023-03-13T02:31:10;21.93;;;3.37;;
5555;SDS011;2801;50.972;7.856;2023-03-13T02:33:38;11.00;;;2.43;;
5555;SDS011;2801;50.972;7.856;2023-03-13T02:36:07;20.37;;;2.93;;
5555;SDS011;2801;50.972;7.856;2023-03-13T02:38:37;13.53;;;3.30;;
5555;SDS011;2801;50.972;7.856;2023-03-13T02:41:12;13.60;;;2.93;;
5555;SDS011;2801;50.972;7.856;2023-03-13T02:43:40;8.90;;;2.27;;
5555;SDS011;2801;50.972;7.856;2023-03-13T02:48:53;15.20;;;3.63;;
5555;SDS011;2801;50.972;7.856;2023-03-13T02:54:01;11.30;;;2.40;;
5555;SDS011;2801;50.972;7.856;2023-03-13T02:56:37;12.87;;;2.37;;
5555;SDS011;2801;50.972;7.856;2023-03-13T02:59:10;18.87;;;2.80;;
5555;SDS011;2801;50.972;7.856;2023-03-13T03:01:37;9.77;;;2.30;;
5555;SDS011;2801;50.972;7.856;2023-03-13T03:04:04;15.00;;;2.20;;
5555;SDS011;2801;50.972;7.856;2023-03-13T03:06:31;17.73;;;2.63;;
5555;SDS011;2801;50.972;7.856;2023-03-13T03:08:58;14.80;;;2.40;;
5555;SDS011;2801;50.972;7.856;2023-03-13T03:11:25;15.97;;;2.90;;
5555;SDS011;2801;50.972;7.856;2023-03-13T03:13:51;19.50;;;2.67;;
5555;SDS011;2801;50.972;7.856;2023-03-13T03:16:18;15.37;;;2.53;;
5555;SDS011;2801;50.972;7.856;2023-03-13T03:18:45;14.67;;;2.33;;
5555;SDS011;2801;50.972;7.856;2023-03-13T03:21:12;8.03;;;1.93;;
5555;SDS011;2801;50.972;7.856;2023-03-13T03:23:39;17.33;;;3.13;;
5555;SDS011;2801;50.972;7.856;2023-03-13T03:26:06;9.10;;;2.43;;
5555;SDS011;2801;50.972;7.856;2023-03-13T03:28:33;13.27;;;2.53;;
5555;SDS011;2801;50.972;7.856;2023-03-13T03:31:04;15.07;;;2.33;;
5555;SDS011;2801;50.972;7.856;2023-03-13T03:33:33;10.03;;;1.70;;
5555;SDS011;2801;50.972;7.856;2023-03-13T03:36:00;12.60;;;2.33;;
5555;SDS011;2801;50.972;7.856;2023-03-13T03:38:30;13.70;;;2.40;;
5555;SDS011;2801;50.972;7.856;2023-03-13T03:40:57;9.55;;;1.85;;
5555;SDS011;2801;50.972;7.856;2023-03-13T03:43:24;10.57;;;1.87;;
5555;SDS011;2801;50.972;7.856;2023-03-13T03:45:51;11.77;;;2.00;;
5555;SDS011;2801;50.972;7.856;2023-03-13T03:48:18;4.78;;;1.38;;
5555;SDS011;2801;50.972;7.856;2023-03-13T03:50:45;3.00;;;1.48;;
5555;SDS011;2801;50.972;7.856;2023-03-13T03:53:11;8.43;;;1.90;;
5555;SDS011;2801;50.972;7.856;2023-03-13T03:55:38;6.97;;;1.80;;
5555;SDS011;2801;50.972;7.856;2023-03-13T03:58:05;6.13;;;1.50;;
5555;SDS011;2801;50.972;7.856;2023-03-13T04:00:32;10.20;;;1.60;;
5555;SDS011;2801;50.972;7.856;2023-03-13T04:02:59;8.13;;;2.00;;
5555;SDS011;2801;50.972;7.856;2023-03-13T04:05:26;6.90;;;1.70;;
5555;SDS011;2801;50.972;7.856;2023-03-13T04:07:53;7.53;;;1.50;;
5555;SDS011;2801;50.972;7.856;2023-03-13T04:10:20;7.05;;;1.20;;
5555;SDS011;2801;50.972;7.856;2023-03-13T04:12:47;7.73;;;1.97;;
5555;SDS011;2801;50.972;7.856;2023-03-13T04:15:14;10.40;;;1.70;;
5555;SDS011;2801;50.972;7.856;2023-03-13T04:17:41;6.67;;;1.70;;
5555;SDS011;2801;50.972;7.856;2023-03-13T04:20:08;9.88;;;2.08;;
5555;SDS011;2801;50.972;7.856;2023-03-13T04:22:36;7.73;;;1.70;;
5555;SDS011;2801;50.972;7.856;2023-03-13T04:25:03;12.50;;;2.07;;
5555;SDS011;2801;50.972;7.856;2023-03-13T04:27:31;5.45;;;1.30;;
5555;SDS011;2801;50.972;7.856;2023-03-13T04:29:59;10.47;;;1.70;;
5555;SDS011;2801;50.972;7.856;2023-03-13T04:32:26;9.73;;;1.40;;
5555;SDS011;2801;50.972;7.856;2023-03-13T04:34:53;6.10;;;1.90;;
5555;SDS011;2801;50.972;7.856;2023-03-13T04:37:20;9.15;;;2.00;;
5555;SDS011;2801;50.972;7.856;2023-03-13T04:39:47;8.77;;;1.90;;
5555;SDS011;2801;50.972;7.856;2023-03-13T04:42:14;7.25;;;2.10;;
5555;SDS011;2801;50.972;7.856;2023-03-13T04:44:41;6.40;;;1.80;;
5555;SDS011;2801;50.972;7.856;2023-03-13T04:47:09;6.32;;;1.92;;
5555;SDS011;2801;50.972;7.856;2023-03-13T04:49:35;8.48;;;1.75;;
5555;SDS011;2801;50.972;7.856;2023-03-13T04:52:02;6.97;;;1.90;;
5555;SDS011;2801;50.972;7.856;2023-03-13T04:54:29;2.17;;;1.10;;
5555;SDS011;2801;50.972;7.856;2023-03-13T04:56:56;7.68;;;1.50;;
5555;SDS011;2801;50.972;7.856;2023-03-13T04:59:23;3.40;;;1.00;;
5555;SDS011;2801;50.972;7.856;2023-03-13T05:01:50;4.60;;;1.50;;
5555;SDS011;2801;50.972;7.856;2023-03-13T05:04:17;4.80;;;1.40;;
5555;SDS011;2801;50.972;7.856;2023-03-13T05:06:44;5.53;;;1.40;;
5555;SDS011;2801;50.972;7.856;2023-03-13T05:09:10;7.43;;;1.50;;
5555;SDS011;2801;50.972;7.856;2023-03-13T05:11:37;6.47;;;1.30;;
5555;SDS011;2801;50.972;7.856;2023-03-13T05:14:05;5.30;;;1.27;;
5555;SDS011;2801;50.972;7.856;2023-03-13T05:16:34;3.23;;;1.20;;
5555;SDS011;2801;50.972;7.856;2023-03-13T05:19:01;4.40;;;1.30;;
5555;SDS011;2801;50.972;7.856;2023-03-13T05:21:28;4.40;;;1.30;;
5555;SDS011;2801;50.972;7.856;2023-03-13T05:23:55;6.65;;;2.50;;
5555;SDS011;2801;50.972;7.856;2023-03-13T05:26:22;6.07;;;2.28;;
5555;SDS011;2801;50.972;7.856;2023-03-13T05:28:49;4.90;;;1.70;;
5555;SDS011;2801;50.972;7.856;2023-03-13T05:31:16;3.00;;;1.00;;
5555;SDS011;2801;50.972;7.856;2023-03-13T05:33:43;6.53;;;1.10;;
5555;SDS011;2801;50.972;7.856;2023-03-13T05:36:09;1.60;;;0.90;;
5555;SDS011;2801;50.972;7.856;2023-03-13T05:38:36;2.20;;;1.02;;
5555;SDS011;2801;50.972;7.856;2023-03-13T05:41:03;3.38;;;1.00;;
5555;SDS011;2801;50.972;7.856;2023-03-13T05:43:30;4.87;;;1.20;;
5555;SDS011;2801;50.972;7.856;2023-03-13T05:45:58;2.90;;;1.20;;
5555;SDS011;2801;50.972;7.856;2023-03-13T05:48:24;2.47;;;1.10;;
5555;SDS011;2801;50.972;7.856;2023-03-13T05:50:51;2.92;;;1.17;;
5555;SDS011;2801;50.972;7.856;2023-03-13T05:53:18;3.22;;;1.10;;
5555;SDS011;2801;50.972;7.856;2023-03-13T05:55:45;3.72;;;1.20;;
5555;SDS011;2801;50.972;7.856;2023-03-13T05:58:12;4.32;;;0.90;;
5555;SDS011;2801;50.972;7.856;2023-03-13T06:00:39;2.45;;;0.90;;
5555;SDS011;2801;50.972;7.856;2023-03-13T06:03:06;3.17;;;0.93;;
5555;SDS011;2801;50.972;7.856;2023-03-13T06:05:32;3.00;;;0.88;;
5555;SDS011;2801;50.972;7.856;2023-03-13T06:07:59;1.95;;;0.80;;
5555;SDS011;2801;50.972;7.856;2023-03-13T06:10:28;1.83;;;0.90;;
5555;SDS011;2801;50.972;7.856;2023-03-13T06:12:55;1.10;;;0.70;;
5555;SDS011;2801;50.972;7.856;2023-03-13T06:15:23;4.05;;;1.00;;
5555;SDS011;2801;50.972;7.856;2023-03-13T06:17:50;2.47;;;1.00;;
5555;SDS011;2801;50.972;7.856;2023-03-13T06:20:17;1.87;;;0.87;;
5555;SDS011;2801;50.972;7.856;2023-03-13T06:22:44;1.45;;;0.95;;
5555;SDS011;2801;50.972;7.856;2023-03-13T06:25:11;1.40;;;0.70;;
5555;SDS011;2801;50.972;7.856;2023-03-13T06:27:39;1.25;;;0.70;;
5555;SDS011;2801;50.972;7.856;2023-03-13T06:30:08;1.60;;;0.80;;
5555;SDS011;2801;50.972;7.856;2023-03-13T06:32:35;2.35;;;0.80;;
5555;SDS011;2801;50.972;7.856;2023-03-13T06:35:03;2.03;;;0.63;;
5555;SDS011;2801;50.972;7.856;2023-03-13T06:37:31;3.97;;;0.80;;
5555;SDS011;2801;50.972;7.856;2023-03-13T06:39:58;1.70;;;0.88;;
5555;SDS011;2801;50.972;7.856;2023-03-13T06:42:24;2.35;;;0.90;;
5555;SDS011;2801;50.972;7.856;2023-03-13T06:44:51;1.40;;;0.82;;
5555;SDS011;2801;50.972;7.856;2023-03-13T06:47:18;1.50;;;0.90;;
5555;SDS011;2801;50.972;7.856;2023-03-13T06:49:45;0.93;;;0.60;;
5555;SDS011;2801;50.972;7.856;2023-03-13T06:52:12;2.38;;;0.65;;
5555;SDS011;2801;50.972;7.856;2023-03-13T06:54:39;1.13;;;0.55;;
5555;SDS011;2801;50.972;7.856;2023-03-13T06:57:05;0.60;;;0.50;;
5555;SDS011;2801;50.972;7.856;2023-03-13T06:59:32;5.28;;;0.82;;
5555;SDS011;2801;50.972;7.856;2023-03-13T07:01:59;0.60;;;0.40;;
5555;SDS011;2801;50.972;7.856;2023-03-13T07:04:26;1.85;;;0.65;;
5555;SDS011;2801;50.972;7.856;2023-03-13T07:06:53;3.17;;;0.70;;
5555;SDS011;2801;50.972;7.856;2023-03-13T07:09:19;0.93;;;0.57;;
5555;SDS011;2801;50.972;7.856;2023-03-13T07:11:46;2.65;;;1.42;;
5555;SDS011;2801;50.972;7.856;2023-03-13T07:14:13;2.20;;;1.20;;
5555;SDS011;2801;50.972;7.856;2023-03-13T07:16:43;1.40;;;0.68;;
5555;SDS011;2801;50.972;7.856;2023-03-13T07:19:11;3.40;;;1.40;;
5555;SDS011;2801;50.972;7.856;2023-03-13T07:21:38;4.57;;;1.20;;
5555;SDS011;2801;50.972;7.856;2023-03-13T07:24:06;4.47;;;2.42;;
5555;SDS011;2801;50.972;7.856;2023-03-13T07:26:33;2.78;;;1.30;;
5555;SDS011;2801;50.972;7.856;2023-03-13T07:29:00;2.00;;;1.00;;
5555;SDS011;2801;50.972;7.856;2023-03-13T07:31:27;1.50;;;0.85;;
5555;SDS011;2801;50.972;7.856;2023-03-13T07:33:58;1.10;;;0.68;;
5555;SDS011;2801;50.972;7.856;2023-03-13T07:36:26;0.95;;;0.55;;
5555;SDS011;2801;50.972;7.856;2023-03-13T07:38:53;7.03;;;3.80;;
5555;SDS011;2801;50.972;7.856;2023-03-13T07:41:20;5.72;;;2.72;;
5555;SDS011;2801;50.972;7.856;2023-03-13T07:43:47;3.40;;;1.02;;
5555;SDS011;2801;50.972;7.856;2023-03-13T07:46:15;5.90;;;1.73;;
5555;SDS011;2801;50.972;7.856;2023-03-13T07:48:45;4.05;;;1.55;;
5555;SDS011;2801;50.972;7.856;2023-03-13T07:51:16;2.05;;;1.17;;
5555;SDS011;2801;50.972;7.856;2023-03-13T07:54:02;1.45;;;1.00;;
5555;SDS011;2801;50.972;7.856;2023-03-13T07:56:29;1.88;;;1.10;;
5555;SDS011;2801;50.972;7.856;2023-03-13T07:58:57;2.10;;;1.30;;
5555;SDS011;2801;50.972;7.856;2023-03-13T08:01:24;2.58;;;1.10;;
5555;SDS011;2801;50.972;7.856;2023-03-13T08:03:56;3.17;;;1.55;;
5555;SDS011;2801;50.972;7.856;2023-03-13T08:06:26;2.53;;;1.35;;
5555;SDS011;2801;50.972;7.856;2023-03-13T08:08:59;2.35;;;1.50;;
5555;SDS011;2801;50.972;7.856;2023-03-13T08:11:27;3.70;;;1.50;;
5555;SDS011;2801;50.972;7.856;2023-03-13T08:13:54;4.03;;;1.60;;
5555;SDS011;2801;50.972;7.856;2023-03-13T08:16:24;4.43;;;1.65;;
5555;SDS011;2801;50.972;7.856;2023-03-13T08:18:56;3.10;;;1.65;;
5555;SDS011;2801;50.972;7.856;2023-03-13T08:21:28;5.35;;;2.28;;
5555;SDS011;2801;50.972;7.856;2023-03-13T08:23:58;4.78;;;1.80;;
5555;SDS011;2801;50.972;7.856;2023-03-13T08:26:29;3.33;;;1.67;;
5555;SDS011;2801;50.972;7.856;2023-03-13T08:29:01;4.70;;;1.85;;
5555;SDS011;2801;50.972;7.856;2023-03-13T08:31:35;5.63;;;2.50;;
5555;SDS011;2801;50.972;7.856;2023-03-13T08:34:14;6.45;;;2.10;;
5555;SDS011;2801;50.972;7.856;2023-03-13T08:36:42;6.82;;;2.30;;
5555;SDS011;2801;50.972;7.856;2023-03-13T08:39:10;4.28;;;2.00;;
5555;SDS011;2801;50.972;7.856;2023-03-13T08:41:46;5.55;;;2.30;;
5555;SDS011;2801;50.972;7.856;2023-03-13T08:44:15;6.15;;;2.00;;
5555;SDS011;2801;50.972;7.856;2023-03-13T08:46:45;2.85;;;1.65;;
5555;SDS011;2801;50.972;7.856;2023-03-13T08:49:14;4.53;;;2.15;;
5555;SDS011;2801;50.972;7.856;2023-03-13T08:51:42;3.97;;;1.83;;
5555;SDS011;2801;50.972;7.856;2023-03-13T08:54:09;5.22;;;2.35;;
5555;SDS011;2801;50.972;7.856;2023-03-13T08:56:36;4.00;;;2.25;;
5555;SDS011;2801;50.972;7.856;2023-03-13T08:59:04;4.40;;;2.30;;
5555;SDS011;2801;50.972;7.856;2023-03-13T09:01:32;5.70;;;2.55;;
5555;SDS011;2801;50.972;7.856;2023-03-13T09:04:01;6.78;;;2.05;;
5555;SDS011;2801;50.972;7.856;2023-03-13T09:06:30;5.32;;;2.15;;
5555;SDS011;2801;50.972;7.856;2023-03-13T09:08:59;3.72;;;2.20;;
5555;SDS011;2801;50.972;7.856;2023-03-13T09:11:27;2.92;;;1.50;;
5555;SDS011;2801;50.972;7.856;2023-03-13T09:13:54;8.48;;;2.50;;
5555;SDS011;2801;50.972;7.856;2023-03-13T09:16:25;5.03;;;2.17;;
5555;SDS011;2801;50.972;7.856;2023-03-13T09:18:56;6.57;;;3.10;;
5555;SDS011;2801;50.972;7.856;2023-03-13T09:21:28;4.45;;;2.10;;
5555;SDS011;2801;50.972;7.856;2023-03-13T09:23:58;13.05;;;6.68;;
5555;SDS011;2801;50.972;7.856;2023-03-13T09:26:26;5.68;;;2.55;;
5555;SDS011;2801;50.972;7.856;2023-03-13T09:28:54;5.63;;;2.97;;
5555;SDS011;2801;50.972;7.856;2023-03-13T09:31:25;5.50;;;2.70;;
5555;SDS011;2801;50.972;7.856;2023-03-13T09:33:55;5.78;;;2.03;;
5555;SDS011;2801;50.972;7.856;2023-03-13T09:36:23;3.97;;;2.20;;
5555;SDS011;2801;50.972;7.856;2023-03-13T09:38:51;5.30;;;2.38;;
5555;SDS011;2801;50.972;7.856;2023-03-13T09:44:17;7.80;;;3.15;;
5555;SDS011;2801;50.972;7.856;2023-03-13T09:47:02;5.25;;;2.50;;
5555;SDS011;2801;50.972;7.856;2023-03-13T09:50:01;4.38;;;2.03;;
5555;SDS011;2801;50.972;7.856;2023-03-13T09:52:43;3.40;;;2.03;;
5555;SDS011;2801;50.972;7.856;2023-03-13T09:57:48;6.38;;;2.28;;
5555;SDS011;2801;50.972;7.856;2023-03-13T10:00:33;7.65;;;2.50;;
5555;SDS011;2801;50.972;7.856;2023-03-13T10:05:48;7.63;;;2.78;;
5555;SDS011;2801;50.972;7.856;2023-03-13T10:08:46;5.22;;;2.15;;
5555;SDS011;2801;50.972;7.856;2023-03-13T10:11:22;4.60;;;3.08;;
5555;SDS011;2801;50.972;7.856;2023-03-13T10:14:13;4.25;;;2.40;;
5555;SDS011;2801;50.972;7.856;2023-03-13T10:16:48;6.88;;;2.88;;
5555;SDS011;2801;50.972;7.856;2023-03-13T10:19:41;7.22;;;2.47;;
5555;SDS011;2801;50.972;7.856;2023-03-13T10:22:11;5.93;;;2.70;;
5555;SDS011;2801;50.972;7.856;2023-03-13T10:27:27;5.32;;;2.50;;
5555;SDS011;2801;50.972;7.856;2023-03-13T10:29:54;9.30;;;2.50;;
5555;SDS011;2801;50.972;7.856;2023-03-13T10:32:21;6.80;;;2.38;;
5555;SDS011;2801;50.972;7.856;2023-03-13T10:34:55;4.45;;;2.28;;
5555;SDS011;2801;50.972;7.856;2023-03-13T10:37:40;5.07;;;2.25;;
5555;SDS011;2801;50.972;7.856;2023-03-13T10:40:13;3.65;;;2.10;;
5555;SDS011;2801;50.972;7.856;2023-03-13T10:42:49;8.85;;;2.15;;
5555;SDS011;2801;50.972;7.856;2023-03-13T10:45:20;4.75;;;2.10;;
5555;SDS011;2801;50.972;7.856;2023-03-13T10:47:54;5.43;;;1.90;;
5555;SDS011;2801;50.972;7.856;2023-03-13T10:50:25;5.03;;;1.92;;
5555;SDS011;2801;50.972;7.856;2023-03-13T10:53:06;3.63;;;1.60;;
5555;SDS011;2801;50.972;7.856;2023-03-13T10:56:11;2.97;;;1.90;;
5555;SDS011;2801;50.972;7.856;2023-03-13T10:58:47;6.85;;;1.80;;
5555;SDS011;2801;50.972;7.856;2023-03-13T11:01:21;5.20;;;2.10;;
5555;SDS011;2801;50.972;7.856;2023-03-13T11:03:52;3.72;;;1.90;;
5555;SDS011;2801;50.972;7.856;2023-03-13T11:09:02;5.68;;;1.98;;
5555;SDS011;2801;50.972;7.856;2023-03-13T11:11:42;4.22;;;2.00;;
5555;SDS011;2801;50.972;7.856;2023-03-13T11:14:21;3.42;;;1.90;;
5555;SDS011;2801;50.972;7.856;2023-03-13T11:16:53;6.03;;;1.73;;
5555;SDS011;2801;50.972;7.856;2023-03-13T11:19:32;6.55;;;2.30;;
5555;SDS011;2801;50.972;7.856;2023-03-13T11:22:24;3.92;;;1.88;;
5555;SDS011;2801;50.972;7.856;2023-03-13T11:31:10;2.75;;;1.80;;
5555;SDS011;2801;50.972;7.856;2023-03-13T11:36:33;4.63;;;2.63;;
5555;SDS011;2801;50.972;7.856;2023-03-13T11:41:57;5.85;;;2.75;;
5555;SDS011;2801;50.972;7.856;2023-03-13T11:45:02;7.43;;;2.53;;
5555;SDS011;2801;50.972;7.856;2023-03-13T11:48:01;5.45;;;2.50;;
5555;SDS011;2801;50.972;7.856;2023-03-13T11:56:42;5.10;;;2.42;;
5555;SDS011;2801;50.972;7.856;2023-03-13T12:02:32;4.38;;;2.10;;
5555;SDS011;2801;50.972;7.856;2023-03-13T12:05:10;4.53;;;2.47;;
5555;SDS011;2801;50.972;7.856;2023-03-13T12:07:47;4.03;;;2.40;;
5555;SDS011;2801;50.972;7.856;2023-03-13T12:10:33;3.97;;;2.22;;
5555;SDS011;2801;50.972;7.856;2023-03-13T12:13:32;5.63;;;2.10;;
5555;SDS011;2801;50.972;7.856;2023-03-13T12:16:10;6.88;;;2.50;;
5555;SDS011;2801;50.972;7.856;2023-03-13T12:18:44;4.18;;;2.55;;
5555;SDS011;2801;50.972;7.856;2023-03-13T12:21:16;4.50;;;2.70;;
5555;SDS011;2801;50.972;7.856;2023-03-13T12:26:56;9.00;;;2.85;;
5555;SDS011;2801;50.972;7.856;2023-03-13T12:29:54;6.15;;;2.80;;
5555;SDS011;2801;50.972;7.856;2023-03-13T12:32:44;5.32;;;2.72;;
5555;SDS011;2801;50.972;7.856;2023-03-13T12:35:31;3.05;;;1.75;;
5555;SDS011;2801;50.972;7.856;2023-03-13T12:38:13;3.65;;;2.10;;
5555;SDS011;2801;50.972;7.856;2023-03-13T12:41:20;4.72;;;2.60;;
5555;SDS011;2801;50.972;7.856;2023-03-13T12:43:53;5.93;;;2.55;;
5555;SDS011;2801;50.972;7.856;2023-03-13T12:46:37;3.72;;;2.17;;
5555;SDS011;2801;50.972;7.856;2023-03-13T12:58:00;4.63;;;2.75;;
5555;SDS011;2801;50.972;7.856;2023-03-13T13:00:41;4.90;;;2.25;;
5555;SDS011;2801;50.972;7.856;2023-03-13T13:05:59;4.85;;;2.38;;
5555;SDS011;2801;50.972;7.856;2023-03-13T13:09:16;4.90;;;2.63;;
5555;SDS011;2801;50.972;7.856;2023-03-13T13:11:39;6.53;;;2.90;;
5555;SDS011;2801;50.972;7.856;2023-03-13T13:16:43;5.72;;;2.47;;
5555;SDS011;2801;50.972;7.856;2023-03-13T13:19:58;5.57;;;2.67;;
5555;SDS011;2801;50.972;7.856;2023-03-13T13:30:15;3.65;;;1.90;;
5555;SDS011;2801;50.972;7.856;2023-03-13T13:32:53;3.95;;;2.67;;
5555;SDS011;2801;50.972;7.856;2023-03-13T13:35:41;6.55;;;2.72;;
5555;SDS011;2801;50.972;7.856;2023-03-13T13:43:34;5.13;;;2.33;;
5555;SDS011;2801;50.972;7.856;2023-03-13T13:51:31;4.03;;;2.72;;
5555;SDS011;2801;50.972;7.856;2023-03-13T13:54:31;4.95;;;2.78;;
5555;SDS011;2801;50.972;7.856;2023-03-13T13:57:19;3.25;;;2.10;;
5555;SDS011;2801;50.972;7.856;2023-03-13T13:59:51;6.68;;;2.90;;
5555;SDS011;2801;50.972;7.856;2023-03-13T14:02:29;5.95;;;2.85;;
5555;SDS011;2801;50.972;7.856;2023-03-13T14:05:06;5.28;;;2.42;;
5555;SDS011;2801;50.972;7.856;2023-03-13T14:10:37;5.50;;;2.60;;
5555;SDS011;2801;50.972;7.856;2023-03-13T14:15:47;4.07;;;2.53;;
5555;SDS011;2801;50.972;7.856;2023-03-13T14:18:23;5.18;;;2.30;;
5555;SDS011;2801;50.972;7.856;2023-03-13T14:21:00;3.47;;;2.10;;
5555;SDS011;2801;50.972;7.856;2023-03-13T14:26:08;5.22;;;2.80;;
5555;SDS011;2801;50.972;7.856;2023-03-13T14:29:00;6.38;;;3.20;;
5555;SDS011;2801;50.972;7.856;2023-03-13T14:31:33;4.82;;;2.40;;
5555;SDS011;2801;50.972;7.856;2023-03-13T14:34:05;4.18;;;2.17;;
5555;SDS011;2801;50.972;7.856;2023-03-13T14:42:08;6.85;;;2.63;;
5555;SDS011;2801;50.972;7.856;2023-03-13T14:44:39;4.70;;;2.42;;
5555;SDS011;2801;50.972;7.856;2023-03-13T14:49:59;4.40;;;2.65;;
5555;SDS011;2801;50.972;7.856;2023-03-13T14:52:30;5.90;;;2.58;;
5555;SDS011;2801;50.972;7.856;2023-03-13T14:55:05;4.85;;;2.30;;
5555;SDS011;2801;50.972;7.856;2023-03-13T14:58:31;5.28;;;2.33;;
5555;SDS011;2801;50.972;7.856;2023-03-13T15:00:58;4.60;;;2.30;;
5555;SDS011;2801;50.972;7.856;2023-03-13T15:03:43;4.43;;;1.92;;
5555;SDS011;2801;50.972;7.856;2023-03-13T15:06:14;4.93;;;2.40;;
5555;SDS011;2801;50.972;7.856;2023-03-13T15:08:46;6.22;;;2.40;;
5555;SDS011;2801;50.972;7.856;2023-03-13T15:11:42;3.53;;;2.28;;
5555;SDS011;2801;50.972;7.856;2023-03-13T15:14:33;2.85;;;1.60;;
5555;SDS011;2801;50.972;7.856;2023-03-13T15:17:17;5.00;;;2.25;;
5555;SDS011;2801;50.972;7.856;2023-03-13T15:19:54;6.45;;;2.15;;
5555;SDS011;2801;50.972;7.856;2023-03-13T15:22:27;5.22;;;1.73;;
5555;SDS011;2801;50.972;7.856;2023-03-13T15:24:56;3.90;;;1.75;;
5555;SDS011;2801;50.972;7.856;2023-03-13T15:27:33;3.88;;;1.60;;
5555;SDS011;2801;50.972;7.856;2023-03-13T15:30:00;2.72;;;1.60;;
5555;SDS011;2801;50.972;7.856;2023-03-13T15:32:28;2.92;;;1.35;;
5555;SDS011;2801;50.972;7.856;2023-03-13T15:34:59;1.35;;;1.10;;
5555;SDS011;2801;50.972;7.856;2023-03-13T15:37:28;2.17;;;1.02;;
5555;SDS011;2801;50.972;7.856;2023-03-13T15:39:56;2.20;;;1.23;;
5555;SDS011;2801;50.972;7.856;2023-03-13T15:42:23;1.50;;;0.70;;
5555;SDS011;2801;50.972;7.856;2023-03-13T15:44:51;1.23;;;0.73;;
5555;SDS011;2801;50.972;7.856;2023-03-13T15:47:19;1.02;;;0.80;;
5555;SDS011;2801;50.972;7.856;2023-03-13T15:49:47;1.15;;;0.57;;
5555;SDS011;2801;50.972;7.856;2023-03-13T15:52:18;1.42;;;0.80;;
5555;SDS011;2801;50.972;7.856;2023-03-13T15:54:48;0.95;;;0.68;;
5555;SDS011;2801;50.972;7.856;2023-03-13T15:57:18;0.68;;;0.63;;
5555;SDS011;2801;50.972;7.856;2023-03-13T15:59:52;1.30;;;0.60;;
5555;SDS011;2801;50.972;7.856;2023-03-13T16:02:22;0.65;;;0.57;;
5555;SDS011;2801;50.972;7.856;2023-03-13T16:04:50;3.83;;;0.57;;
5555;SDS011;2801;50.972;7.856;2023-03-13T16:07:18;1.42;;;0.63;;
5555;SDS011;2801;50.972;7.856;2023-03-13T16:09:46;0.73;;;0.68;;
5555;SDS011;2801;50.972;7.856;2023-03-13T16:12:13;1.33;;;0.60;;
5555;SDS011;2801;50.972;7.856;2023-03-13T16:14:40;1.20;;;0.50;;
5555;SDS011;2801;50.972;7.856;2023-03-13T16:17:17;1.48;;;0.90;;
5555;SDS011;2801;50.972;7.856;2023-03-13T16:19:45;1.63;;;0.75;;
5555;SDS011;2801;50.972;7.856;2023-03-13T16:22:13;1.40;;;0.98;;
5555;SDS011;2801;50.972;7.856;2023-03-13T16:24:40;1.10;;;0.80;;
5555;SDS011;2801;50.972;7.856;2023-03-13T16:27:14;2.90;;;0.95;;
5555;SDS011;2801;50.972;7.856;2023-03-13T16:29:44;1.52;;;0.70;;
5555;SDS011;2801;50.972;7.856;2023-03-13T16:32:14;1.20;;;0.60;;
5555;SDS011;2801;50.972;7.856;2023-03-13T16:34:43;1.40;;;0.63;;
5555;SDS011;2801;50.972;7.856;2023-03-13T16:37:11;0.85;;;0.70;;
5555;SDS011;2801;50.972;7.856;2023-03-13T16:39:46;3.13;;;0.93;;
5555;SDS011;2801;50.972;7.856;2023-03-13T16:42:13;1.08;;;0.70;;
5555;SDS011;2801;50.972;7.856;2023-03-13T16:44:40;2.15;;;0.75;;
5555;SDS011;2801;50.972;7.856;2023-03-13T16:47:12;0.90;;;0.70;;
5555;SDS011;2801;50.972;7.856;2023-03-13T16:49:46;2.00;;;0.90;;
5555;SDS011;2801;50.972;7.856;2023-03-13T16:52:14;2.00;;;0.88;;
5555;SDS011;2801;50.972;7.856;2023-03-13T16:54:43;1.85;;;0.90;;
5555;SDS011;2801;50.972;7.856;2023-03-13T16:57:11;6.57;;;1.40;;
5555;SDS011;2801;50.972;7.856;2023-03-13T16:59:44;1.58;;;1.02;;
5555;SDS011;2801;50.972;7.856;2023-03-13T17:02:12;6.10;;;1.30;;
5555;SDS011;2801;50.972;7.856;2023-03-13T17:04:45;2.25;;;1.10;;
5555;SDS011;2801;50.972;7.856;2023-03-13T17:07:21;3.17;;;1.15;;
5555;SDS011;2801;50.972;7.856;2023-03-13T17:09:51;4.57;;;1.75;;
5555;SDS011;2801;50.972;7.856;2023-03-13T17:12:18;3.58;;;1.63;;
5555;SDS011;2801;50.972;7.856;2023-03-13T17:14:46;4.63;;;1.10;;
5555;SDS011;2801;50.972;7.856;2023-03-13T17:17:17;4.18;;;1.40;;
5555;SDS011;2801;50.972;7.856;2023-03-13T17:19:47;2.60;;;1.10;;